Terminal Aerodrome Forecast
Issued by NWS Burlington, VT

Home | Current Version | Previous Version | Text Only | Print | Product List | Glossary On
Versions: 1 2 3 4 5 6 7 8 9 10 11 12 13 14 15 16 17 18 19
000
FTUS41 KBTV 202338
TAFBTV
TAF
KBTV 202338Z 2100/2124 VRB03KT P6SM SCT030 OVC050
      TEMPO 2100/2104 OVC030
     FM210400 17006KT P6SM OVC030
     FM211000 18009KT P6SM SCT030
     FM211500 18015G25KT P6SM SCT200=

USA.gov is the U.S. government's official web portal to all federal, state and local government web resources and services.